Flight Track Log - Related Links

Times and Time Zones

All times are in EDT time to prevent confusion due to time zone crossing. See the ASQ3272 flight status page for this flight to view local times or setup timezone preferences in your user account.

Time Position Orientation Groundspeed Altitude Reporting Facility
EDT Latitude Longitude Course Direction KTS MPH feet Rate Location/Type
Tue 08:49:10 AM 41.3950 -81.8758 264° West 154 177 1,800  Level Cleveland Center
Tue 08:50:03 AM 41.3908 -81.9250 264° West 194 223 3,200 2,243 Climbing Cleveland Center
Tue 08:51:05 AM 41.3894 -82.0119 269° West 222 255 6,100 3,000 Climbing Cleveland Center
Tue 08:52:07 AM 41.3886 -82.1033 269° West 240 276 9,400 2,439 Climbing Cleveland Center
Tue 08:53:08 AM 41.3697 -82.1997 255° West 268 308 11,100 1,839 Climbing Cleveland Center
Tue 08:54:11 AM 41.3481 -82.3131 256° West 308 354 13,200 2,208 Climbing Cleveland Center
Tue 08:55:13 AM 41.3269 -82.4278 256° West 313 360 15,700 2,565 Climbing Cleveland Center
Tue 08:56:15 AM 41.3036 -82.5586 257° West 312 359 18,500 2,226 Climbing Cleveland Center
Tue 08:57:17 AM 41.2886 -82.6731 260° West 311 358 20,300 1,597 Climbing Cleveland Center
Tue 08:58:19 AM 41.2728 -82.7911 260° West 318 366 21,800 823 Climbing Cleveland Center
Tue 08:59:21 AM 41.2564 -82.9197 260° West 344 396 22,000 97 Climbing Cleveland Center
Tue 09:00:23 AM 41.3142 -83.0278 305° West 360 414 22,000  Level Cleveland Center
Tue 09:01:25 AM 41.4108 -83.0850 336° Northwest 373 429 22,000  Level Cleveland Center
Tue 09:02:27 AM 41.5069 -83.1403 337° Northwest 373 429 22,000  Level Cleveland Center
Tue 09:03:29 AM 41.6069 -83.1992 336° Northwest 375 432 22,000  Level Cleveland Center
Tue 09:04:31 AM 41.7061 -83.2564 337° Northwest 386 444 22,000  Level Cleveland Center
Tue 09:05:33 AM 41.8069 -83.3153 336° Northwest 390 449 22,000  Level Cleveland Center
Tue 09:06:35 AM 41.9203 -83.3811 337° Northwest 381 438 22,000  Level Cleveland Center
Tue 09:07:37 AM 42.0164 -83.4386 336° Northwest 377 434 22,000  Level Cleveland Center
Tue 09:08:39 AM 42.0989 -83.5247 322° Northwest 373 429 22,000  Level Cleveland Center
Tue 09:09:41 AM 42.1742 -83.6217 316° Northwest 366 421 22,000  Level Cleveland Center
Tue 09:10:43 AM 42.2489 -83.7186 316° Northwest 367 422 22,000  Level Cleveland Center
Tue 09:11:45 AM 42.3225 -83.8153 316° Northwest 367 422 22,000  Level Cleveland Center
Tue 09:12:47 AM 42.3964 -83.9136 316° Northwest 367 422 22,000  Level Cleveland Center
Tue 09:13:49 AM 42.4719 -84.0131 316° Northwest 376 433 22,000  Level Cleveland Center
Tue 09:14:51 AM 42.5644 -84.1350 316° Northwest 381 438 22,000 -290 Level Cleveland Center
Tue 09:15:53 AM 42.6333 -84.2450 310° West 381 438 21,400 -726 Descending Cleveland Center
Tue 09:16:55 AM 42.6703 -84.3614 293° West 372 428 20,500 -677 Descending Cleveland Center
Tue 09:17:57 AM 42.7153 -84.5089 293° West 358 412 20,000 -242 Descending Cleveland Center
Tue 09:18:59 AM 42.7519 -84.6336 292° West 357 411 20,000  Level Cleveland Center
Tue 09:20:01 AM 42.7917 -84.7600 293° West 360 414 20,000  Level Cleveland Center
Tue 09:21:03 AM 42.8292 -84.8864 292° West 361 415 20,000  Level Cleveland Center
Tue 09:21:40 AM 42.8517 -84.9617 292° West 362 417 20,000  Level Chicago Center
Tue 09:22:42 AM 42.8903 -85.0872 293° West 362 417 20,000  Level Chicago Center
Tue 09:23:44 AM 42.9356 -85.2425 292° West 365 420 20,000  Level Chicago Center
Tue 09:24:46 AM 42.9750 -85.3747 292° West 376 433 20,000  Level Chicago Center
Tue 09:25:48 AM 43.0139 -85.5078 292° West 378 435 20,000  Level Chicago Center
Tue 09:26:50 AM 43.0539 -85.6411 292° West 382 440 20,000  Level Chicago Center
Tue 09:27:52 AM 43.0917 -85.7725 292° West 378 435 20,000  Level Chicago Center
Tue 09:28:54 AM 43.1361 -85.9278 291° West 375 432 20,000 -194 Level Chicago Center
Tue 09:29:56 AM 43.1675 -86.0592 288° West 377 434 19,600 -823 Descending Chicago Center
Tue 09:30:58 AM 43.1675 -86.2017 270° West 380 437 18,300 -1,113 Descending Chicago Center
Tue 09:32:00 AM 43.1650 -86.3428 269° West 380 437 17,300 -968 Descending Chicago Center
Tue 09:33:02 AM 43.1628 -86.4831 269° West 376 433 16,300 -1,016 Descending Chicago Center
Tue 09:34:04 AM 43.1594 -86.6472 268° West 365 420 15,200 -1,016 Descending Chicago Center
Tue 09:35:06 AM 43.1569 -86.7828 269° West 363 418 14,200 -629 Descending Chicago Center
Tue 09:36:08 AM 43.1547 -86.9178 269° West 359 413 13,900 -145 Descending Chicago Center
Tue 09:37:10 AM 43.1508 -87.0494 268° West 351 404 13,900 -532 Level Chicago Center
Tue 09:38:12 AM 43.1481 -87.1819 268° West 351 404 12,800 -1,258 Descending Chicago Center
Tue 09:39:14 AM 43.1286 -87.3339 260° West 342 394 11,300 -1,210 Descending Chicago Center
Tue 09:40:16 AM 43.1136 -87.4408 259° West 294 338 10,300 -1,016 Descending Chicago Center
Tue 09:41:18 AM 43.1006 -87.5375 260° West 264 304 9,200 -1,113 Descending Chicago Center
Tue 09:42:20 AM 43.0886 -87.6294 260° West 251 289 8,000 -1,065 Descending Chicago Center
Tue 09:43:22 AM 43.0767 -87.7231 260° West 250 288 7,000 -532 Descending Chicago Center
Tue 09:44:24 AM 43.0186 -87.7656 208° Southwest 272 313 6,900 -242 Descending Chicago Center
Tue 09:45:26 AM 42.9247 -87.7711 182° South 285 328 6,500 -871 Descending Chicago Center
Tue 09:46:28 AM 42.8494 -87.7792 184° South 277 319 5,100 -1,296 Descending Chicago Center
Tue 09:47:31 AM 42.8211 -87.8436 239° Southwest 236 272 3,800 -1,036 Descending Chicago Center
Tue 09:49:45 AM 42.8833 -87.9000 326° Northwest 112 129 1,700 -835 Descending KMKE
Tue 09:50:45 AM 42.9167 -87.9000 360° North 118 136 1,100 -600 Descending KMKE
Tue 09:52:00 AM 42.9333 -87.8833 343° North  Level FlightAware Approximate
Tue 09:59:00 AM 42.9469 -87.8971 343° North  Level Estimated

Login

Don't have an account? Register now (free) for customized features, flight alerts, and more!